sensor_id;sensor_type;location;lat;lon;timestamp;pressure;altitude;pressure_sealevel;temperature;humidity
83894;BME280;73920;51.902;6.374;2024-01-16T00:01:55;100811.53;;;0.00;88.14
83894;BME280;73920;51.902;6.374;2024-01-16T00:04:21;100819.50;;;-0.04;88.77
83894;BME280;73920;51.902;6.374;2024-01-16T00:06:47;100810.78;;;-0.09;88.76
83894;BME280;73920;51.902;6.374;2024-01-16T00:09:14;100802.97;;;-0.15;88.67
83894;BME280;73920;51.902;6.374;2024-01-16T00:11:43;100807.38;;;-0.17;88.68
83894;BME280;73920;51.902;6.374;2024-01-16T00:14:10;100809.16;;;-0.21;88.65
83894;BME280;73920;51.902;6.374;2024-01-16T00:16:41;100810.03;;;-0.20;89.39
83894;BME280;73920;51.902;6.374;2024-01-16T00:19:08;100810.88;;;-0.17;89.64
83894;BME280;73920;51.902;6.374;2024-01-16T00:21:39;100809.06;;;-0.13;89.21
83894;BME280;73920;51.902;6.374;2024-01-16T00:24:05;100809.03;;;-0.10;89.29
83894;BME280;73920;51.902;6.374;2024-01-16T00:26:31;100820.41;;;-0.08;89.47
83894;BME280;73920;51.902;6.374;2024-01-16T00:28:58;100809.00;;;-0.07;89.69
83894;BME280;73920;51.902;6.374;2024-01-16T00:31:24;100802.03;;;-0.08;89.24
83894;BME280;73920;51.902;6.374;2024-01-16T00:33:50;100802.94;;;-0.14;89.23
83894;BME280;73920;51.902;6.374;2024-01-16T00:36:16;100803.84;;;-0.16;89.26
83894;BME280;73920;51.902;6.374;2024-01-16T00:38:42;100805.66;;;-0.18;89.85
83894;BME280;73920;51.902;6.374;2024-01-16T00:41:09;100800.41;;;-0.21;89.62
83894;BME280;73920;51.902;6.374;2024-01-16T00:43:35;100804.84;;;-0.26;89.59
83894;BME280;73920;51.902;6.374;2024-01-16T00:46:01;100805.81;;;-0.33;89.85
83894;BME280;73920;51.902;6.374;2024-01-16T00:48:28;100818.12;;;-0.38;89.25
83894;BME280;73920;51.902;6.374;2024-01-16T00:50:54;100825.16;;;-0.42;89.73
83894;BME280;73920;51.902;6.374;2024-01-16T00:53:20;100833.06;;;-0.45;89.67
83894;BME280;73920;51.902;6.374;2024-01-16T00:55:47;100838.34;;;-0.48;89.51
83894;BME280;73920;51.902;6.374;2024-01-16T00:58:13;100834.03;;;-0.52;89.77
83894;BME280;73920;51.902;6.374;2024-01-16T01:00:39;100844.53;;;-0.54;90.02
83894;BME280;73920;51.902;6.374;2024-01-16T01:03:05;100845.44;;;-0.56;89.39
83894;BME280;73920;51.902;6.374;2024-01-16T01:05:32;100857.69;;;-0.57;89.46
83894;BME280;73920;51.902;6.374;2024-01-16T01:07:58;100850.69;;;-0.58;89.77
83894;BME280;73920;51.902;6.374;2024-01-16T01:10:24;100860.31;;;-0.57;89.98
83894;BME280;73920;51.902;6.374;2024-01-16T01:12:51;100862.03;;;-0.53;90.45
83894;BME280;73920;51.902;6.374;2024-01-16T01:15:17;100860.16;;;-0.43;90.30
83894;BME280;73920;51.902;6.374;2024-01-16T01:17:43;100861.81;;;-0.31;89.99
83894;BME280;73920;51.902;6.374;2024-01-16T01:20:10;100865.19;;;-0.20;90.13
83894;BME280;73920;51.902;6.374;2024-01-16T01:22:36;100865.13;;;-0.11;89.86
83894;BME280;73920;51.902;6.374;2024-01-16T01:25:04;100873.81;;;-0.05;89.29
83894;BME280;73920;51.902;6.374;2024-01-16T01:27:30;100869.34;;;0.02;89.09
83894;BME280;73920;51.902;6.374;2024-01-16T01:29:56;100872.81;;;0.07;89.22
83894;BME280;73920;51.902;6.374;2024-01-16T01:32:23;100876.22;;;0.12;89.04
83894;BME280;73920;51.902;6.374;2024-01-16T01:34:49;100871.81;;;0.17;89.59
83894;BME280;73920;51.902;6.374;2024-01-16T01:37:15;100871.75;;;0.20;88.60
83894;BME280;73920;51.902;6.374;2024-01-16T01:39:42;100870.84;;;0.23;89.24
83894;BME280;73920;51.902;6.374;2024-01-16T01:42:08;100867.34;;;0.24;88.86
83894;BME280;73920;51.902;6.374;2024-01-16T01:44:34;100871.66;;;0.28;88.62
83894;BME280;73920;51.902;6.374;2024-01-16T01:47:00;100868.13;;;0.30;89.03
83894;BME280;73920;51.902;6.374;2024-01-16T01:49:27;100862.91;;;0.27;88.33
83894;BME280;73920;51.902;6.374;2024-01-16T01:51:54;100863.87;;;0.20;88.48
83894;BME280;73920;51.902;6.374;2024-01-16T01:54:21;100867.47;;;0.12;88.52
83894;BME280;73920;51.902;6.374;2024-01-16T01:56:49;100865.84;;;0.03;89.38
83894;BME280;73920;51.902;6.374;2024-01-16T01:59:17;100867.66;;;-0.05;89.10
83894;BME280;73920;51.902;6.374;2024-01-16T02:01:45;100872.13;;;-0.13;88.51
83894;BME280;73920;51.902;6.374;2024-01-16T02:04:14;100869.59;;;-0.19;89.38
83894;BME280;73920;51.902;6.374;2024-01-16T02:06:42;100872.22;;;-0.19;89.51
83894;BME280;73920;51.902;6.374;2024-01-16T02:09:08;100864.37;;;-0.25;88.81
83894;BME280;73920;51.902;6.374;2024-01-16T02:11:35;100867.03;;;-0.28;88.88
83894;BME280;73920;51.902;6.374;2024-01-16T02:14:01;100868.81;;;-0.32;89.32
83894;BME280;73920;51.902;6.374;2024-01-16T02:16:34;100880.25;;;-0.33;89.64
83894;BME280;73920;51.902;6.374;2024-01-16T02:19:01;100881.16;;;-0.38;89.43
83894;BME280;73920;51.902;6.374;2024-01-16T02:21:28;100883.81;;;-0.40;89.71
83894;BME280;73920;51.902;6.374;2024-01-16T02:23:57;100882.06;;;-0.42;89.30
83894;BME280;73920;51.902;6.374;2024-01-16T02:26:23;100885.56;;;-0.42;89.87
83894;BME280;73920;51.902;6.374;2024-01-16T02:28:49;100873.31;;;-0.41;89.44
83894;BME280;73920;51.902;6.374;2024-01-16T02:31:16;100877.69;;;-0.40;89.22
83894;BME280;73920;51.902;6.374;2024-01-16T02:33:42;100874.19;;;-0.42;89.77
83894;BME280;73920;51.902;6.374;2024-01-16T02:36:08;100875.06;;;-0.42;89.52
83894;BME280;73920;51.902;6.374;2024-01-16T02:38:37;100875.06;;;-0.42;90.27
83894;BME280;73920;51.902;6.374;2024-01-16T02:41:04;100868.91;;;-0.39;89.77
83894;BME280;73920;51.902;6.374;2024-01-16T02:43:30;100872.38;;;-0.37;90.16
83894;BME280;73920;51.902;6.374;2024-01-16T02:45:56;100877.66;;;-0.37;89.85
83894;BME280;73920;51.902;6.374;2024-01-16T02:48:22;100879.31;;;-0.30;90.25
83894;BME280;73920;51.902;6.374;2024-01-16T02:50:48;100881.03;;;-0.26;90.38
83894;BME280;73920;51.902;6.374;2024-01-16T02:53:15;100872.25;;;-0.25;90.13
83894;BME280;73920;51.902;6.374;2024-01-16T02:55:41;100885.34;;;-0.21;90.33
83894;BME280;73920;51.902;6.374;2024-01-16T02:58:07;100880.94;;;-0.17;90.21
83894;BME280;73920;51.902;6.374;2024-01-16T03:00:34;100881.75;;;-0.12;90.05
83894;BME280;73920;51.902;6.374;2024-01-16T03:03:00;100881.72;;;-0.08;90.03
83894;BME280;73920;51.902;6.374;2024-01-16T03:05:26;100875.53;;;-0.04;90.19
83894;BME280;73920;51.902;6.374;2024-01-16T03:07:53;100878.13;;;-0.01;89.80
83894;BME280;73920;51.902;6.374;2024-01-16T03:10:19;100885.13;;;0.02;90.17
83894;BME280;73920;51.902;6.374;2024-01-16T03:12:45;100890.31;;;0.07;89.45
83894;BME280;73920;51.902;6.374;2024-01-16T03:15:11;100878.91;;;0.09;89.67
83894;BME280;73920;51.902;6.374;2024-01-16T03:17:37;100892.88;;;0.11;89.76
83894;BME280;73920;51.902;6.374;2024-01-16T03:20:05;100882.34;;;0.14;89.55
83894;BME280;73920;51.902;6.374;2024-01-16T03:22:31;100857.97;;;0.02;89.61
83894;BME280;73920;51.902;6.374;2024-01-16T03:24:58;100879.66;;;0.20;90.01
83894;BME280;73920;51.902;6.374;2024-01-16T03:27:24;100876.09;;;0.24;89.37
83894;BME280;73920;51.902;6.374;2024-01-16T03:29:50;100875.19;;;0.27;89.83
83894;BME280;73920;51.902;6.374;2024-01-16T03:32:16;100877.72;;;0.34;89.52
83894;BME280;73920;51.902;6.374;2024-01-16T03:34:42;100870.66;;;0.39;89.08
83894;BME280;73920;51.902;6.374;2024-01-16T03:37:09;100867.06;;;0.43;89.67
83894;BME280;73920;51.902;6.374;2024-01-16T03:39:35;100867.06;;;0.45;89.29
83894;BME280;73920;51.902;6.374;2024-01-16T03:42:01;100867.00;;;0.48;89.00
83894;BME280;73920;51.902;6.374;2024-01-16T03:44:28;100863.50;;;0.49;89.69
83894;BME280;73920;51.902;6.374;2024-01-16T03:46:54;100865.22;;;0.52;89.26
83894;BME280;73920;51.902;6.374;2024-01-16T03:49:20;100853.81;;;0.53;89.63
83894;BME280;73920;51.902;6.374;2024-01-16T03:51:46;100856.44;;;0.54;89.37
83894;BME280;73920;51.902;6.374;2024-01-16T03:54:13;100858.19;;;0.52;88.64
83894;BME280;73920;51.902;6.374;2024-01-16T03:56:39;100857.28;;;0.55;88.57
83894;BME280;73920;51.902;6.374;2024-01-16T03:59:06;100859.03;;;0.56;89.27
83894;BME280;73920;51.902;6.374;2024-01-16T04:01:33;100862.47;;;0.61;88.89
83894;BME280;73920;51.902;6.374;2024-01-16T04:04:00;100871.25;;;0.60;88.80
83894;BME280;73920;51.902;6.374;2024-01-16T04:06:26;100865.16;;;0.56;89.11
83894;BME280;73920;51.902;6.374;2024-01-16T04:08:52;100872.13;;;0.60;89.34
83894;BME280;73920;51.902;6.374;2024-01-16T04:11:18;100869.44;;;0.62;88.66
83894;BME280;73920;51.902;6.374;2024-01-16T04:13:45;100869.44;;;0.62;89.18
83894;BME280;73920;51.902;6.374;2024-01-16T04:16:12;100862.41;;;0.64;89.22
83894;BME280;73920;51.902;6.374;2024-01-16T04:18:41;100861.50;;;0.66;89.26
83894;BME280;73920;51.902;6.374;2024-01-16T04:21:07;100863.28;;;0.64;89.17
83894;BME280;73920;51.902;6.374;2024-01-16T04:23:34;100867.72;;;0.61;88.89
83894;BME280;73920;51.902;6.374;2024-01-16T04:26:00;100861.66;;;0.56;89.29
83894;BME280;73920;51.902;6.374;2024-01-16T04:28:26;100860.00;;;0.50;89.48
83894;BME280;73920;51.902;6.374;2024-01-16T04:30:53;100862.66;;;0.45;88.73
83894;BME280;73920;51.902;6.374;2024-01-16T04:33:19;100862.72;;;0.42;89.08
83894;BME280;73920;51.902;6.374;2024-01-16T04:35:46;100858.34;;;0.41;89.84
83894;BME280;73920;51.902;6.374;2024-01-16T04:38:12;100863.59;;;0.43;89.59
83894;BME280;73920;51.902;6.374;2024-01-16T04:40:38;100865.31;;;0.45;89.28
83894;BME280;73920;51.902;6.374;2024-01-16T04:43:05;100860.87;;;0.47;89.62
83894;BME280;73920;51.902;6.374;2024-01-16T04:45:31;100860.00;;;0.48;89.01
83894;BME280;73920;51.902;6.374;2024-01-16T04:47:57;100865.25;;;0.48;89.50
83894;BME280;73920;51.902;6.374;2024-01-16T04:50:23;100867.87;;;0.48;89.22
83894;BME280;73920;51.902;6.374;2024-01-16T04:52:49;100867.87;;;0.48;88.69
83894;BME280;73920;51.902;6.374;2024-01-16T04:55:16;100874.03;;;0.47;89.14
83894;BME280;73920;51.902;6.374;2024-01-16T04:57:42;100870.56;;;0.47;89.66
83894;BME280;73920;51.902;6.374;2024-01-16T05:00:09;100867.94;;;0.47;89.41
83894;BME280;73920;51.902;6.374;2024-01-16T05:02:36;100864.41;;;0.46;88.63
83894;BME280;73920;51.902;6.374;2024-01-16T05:05:02;100870.50;;;0.48;88.56
83894;BME280;73920;51.902;6.374;2024-01-16T05:07:28;100869.59;;;0.51;88.95
83894;BME280;73920;51.902;6.374;2024-01-16T05:09:54;100869.53;;;0.56;89.01
83894;BME280;73920;51.902;6.374;2024-01-16T05:12:21;100862.53;;;0.58;89.11
83894;BME280;73920;51.902;6.374;2024-01-16T05:14:47;100875.62;;;0.59;89.27
83894;BME280;73920;51.902;6.374;2024-01-16T05:17:13;100864.19;;;0.62;89.21
83894;BME280;73920;51.902;6.374;2024-01-16T05:19:39;100864.19;;;0.63;89.06
83894;BME280;73920;51.902;6.374;2024-01-16T05:22:05;100858.94;;;0.62;88.64
83894;BME280;73920;51.902;6.374;2024-01-16T05:24:32;100864.19;;;0.63;88.35
83894;BME280;73920;51.902;6.374;2024-01-16T05:26:58;100859.78;;;0.64;88.80
83894;BME280;73920;51.902;6.374;2024-01-16T05:29:24;100859.78;;;0.64;88.45
83894;BME280;73920;51.902;6.374;2024-01-16T05:31:50;100854.50;;;0.65;88.49
83894;BME280;73920;51.902;6.374;2024-01-16T05:34:16;100848.34;;;0.66;88.86
83894;BME280;73920;51.902;6.374;2024-01-16T05:36:43;100853.56;;;0.69;89.10
83894;BME280;73920;51.902;6.374;2024-01-16T05:39:09;100849.16;;;0.70;88.77
83894;BME280;73920;51.902;6.374;2024-01-16T05:41:35;100854.37;;;0.74;88.92
83894;BME280;73920;51.902;6.374;2024-01-16T05:44:02;100850.87;;;0.74;88.17
83894;BME280;73920;51.902;6.374;2024-01-16T05:46:28;100846.50;;;0.73;88.60
83894;BME280;73920;51.902;6.374;2024-01-16T05:48:54;100841.31;;;0.67;88.65
83894;BME280;73920;51.902;6.374;2024-01-16T05:51:20;100811.88;;;0.40;87.74
83894;BME280;73920;51.902;6.374;2024-01-16T05:53:46;100840.75;;;0.46;88.51
83894;BME280;73920;51.902;6.374;2024-01-16T05:56:13;100837.34;;;0.38;88.85
83894;BME280;73920;51.902;6.374;2024-01-16T05:58:39;100833.06;;;0.31;88.76
83894;BME280;73920;51.902;6.374;2024-01-16T06:01:06;100826.16;;;0.24;88.50
83894;BME280;73920;51.902;6.374;2024-01-16T06:03:32;100825.31;;;0.19;89.10
83894;BME280;73920;51.902;6.374;2024-01-16T06:05:58;100821.03;;;0.14;88.51
83894;BME280;73920;51.902;6.374;2024-01-16T06:08:25;100816.66;;;0.11;89.26
83894;BME280;73920;51.902;6.374;2024-01-16T06:10:51;100813.22;;;0.06;89.35
83894;BME280;73920;51.902;6.374;2024-01-16T06:13:21;100821.16;;;0.03;88.48
83894;BME280;73920;51.902;6.374;2024-01-16T06:15:47;100817.69;;;-0.01;88.76
83894;BME280;73920;51.902;6.374;2024-01-16T06:18:14;100818.62;;;-0.05;89.35
83894;BME280;73920;51.902;6.374;2024-01-16T06:20:40;100819.50;;;-0.06;88.72
83894;BME280;73920;51.902;6.374;2024-01-16T06:23:06;100819.53;;;-0.09;88.84
83894;BME280;73920;51.902;6.374;2024-01-16T06:25:32;100822.22;;;-0.12;89.15
83894;BME280;73920;51.902;6.374;2024-01-16T06:27:59;100816.06;;;-0.12;88.84
83894;BME280;73920;51.902;6.374;2024-01-16T06:30:25;100817.78;;;-0.08;88.96
83894;BME280;73920;51.902;6.374;2024-01-16T06:32:51;100825.59;;;-0.04;89.44
83894;BME280;73920;51.902;6.374;2024-01-16T06:35:17;100819.41;;;0.00;88.88
83894;BME280;73920;51.902;6.374;2024-01-16T06:37:44;100826.38;;;0.06;88.80
83894;BME280;73920;51.902;6.374;2024-01-16T06:40:11;100829.78;;;0.11;88.87
83894;BME280;73920;51.902;6.374;2024-01-16T06:42:37;100835.00;;;0.17;88.47
83894;BME280;73920;51.902;6.374;2024-01-16T06:45:04;100831.44;;;0.21;88.61
83894;BME280;73920;51.902;6.374;2024-01-16T06:47:31;100830.53;;;0.25;88.71
83894;BME280;73920;51.902;6.374;2024-01-16T06:49:57;100828.69;;;0.30;88.72
83894;BME280;73920;51.902;6.374;2024-01-16T06:52:24;100829.50;;;0.35;88.94
83894;BME280;73920;51.902;6.374;2024-01-16T06:54:50;100826.84;;;0.37;88.04
83894;BME280;73920;51.902;6.374;2024-01-16T06:57:17;100817.19;;;0.39;88.85
83894;BME280;73920;51.902;6.374;2024-01-16T06:59:43;100825.91;;;0.41;87.92
83894;BME280;73920;51.902;6.374;2024-01-16T07:02:09;100816.31;;;0.37;88.62
83894;BME280;73920;51.902;6.374;2024-01-16T07:04:35;100823.31;;;0.36;88.71
83894;BME280;73920;51.902;6.374;2024-01-16T07:07:01;100823.31;;;0.36;89.09
83894;BME280;73920;51.902;6.374;2024-01-16T07:09:28;100823.37;;;0.35;88.75
83894;BME280;73920;51.902;6.374;2024-01-16T07:11:54;100824.28;;;0.32;88.42
83894;BME280;73920;51.902;6.374;2024-01-16T07:14:20;100828.72;;;0.29;89.05
83894;BME280;73920;51.902;6.374;2024-01-16T07:16:47;100830.53;;;0.25;88.07
83894;BME280;73920;51.902;6.374;2024-01-16T07:19:13;100825.28;;;0.24;88.81
83894;BME280;73920;51.902;6.374;2024-01-16T07:21:39;100831.44;;;0.21;88.51
83894;BME280;73920;51.902;6.374;2024-01-16T07:24:05;100827.03;;;0.22;88.29
83894;BME280;73920;51.902;6.374;2024-01-16T07:26:32;100828.81;;;0.20;88.25
83894;BME280;73920;51.902;6.374;2024-01-16T07:28:58;100839.31;;;0.21;88.29
83894;BME280;73920;51.902;6.374;2024-01-16T07:31:26;100837.53;;;0.22;88.65
83894;BME280;73920;51.902;6.374;2024-01-16T07:33:52;100827.06;;;0.20;88.59
83894;BME280;73920;51.902;6.374;2024-01-16T07:36:18;100831.44;;;0.21;88.36
83894;BME280;73920;51.902;6.374;2024-01-16T07:38:44;100841.09;;;0.19;88.78
83894;BME280;73920;51.902;6.374;2024-01-16T07:41:10;100837.63;;;0.16;88.38
83894;BME280;73920;51.902;6.374;2024-01-16T07:43:37;100844.69;;;0.14;88.59
83894;BME280;73920;51.902;6.374;2024-01-16T07:46:03;100847.31;;;0.14;88.76
83894;BME280;73920;51.902;6.374;2024-01-16T07:48:29;100847.28;;;0.15;89.11
83894;BME280;73920;51.902;6.374;2024-01-16T07:50:55;100851.59;;;0.21;88.90
83894;BME280;73920;51.902;6.374;2024-01-16T07:53:22;100848.94;;;0.24;88.99
83894;BME280;73920;51.902;6.374;2024-01-16T07:55:48;100858.47;;;0.29;88.33
83894;BME280;73920;51.902;6.374;2024-01-16T07:58:14;100851.41;;;0.34;88.71
83894;BME280;73920;51.902;6.374;2024-01-16T08:00:40;100849.63;;;0.39;88.26
83894;BME280;73920;51.902;6.374;2024-01-16T08:03:08;100846.91;;;0.44;88.40
83894;BME280;73920;51.902;6.374;2024-01-16T08:05:35;100847.72;;;0.47;88.20
83894;BME280;73920;51.902;6.374;2024-01-16T08:08:01;100855.59;;;0.51;87.60
83894;BME280;73920;51.902;6.374;2024-01-16T08:10:27;100853.75;;;0.56;88.61
83894;BME280;73920;51.902;6.374;2024-01-16T08:12:53;100858.09;;;0.60;87.92
83894;BME280;73920;51.902;6.374;2024-01-16T08:15:19;100858.03;;;0.63;87.71
83894;BME280;73920;51.902;6.374;2024-01-16T08:17:46;100864.16;;;0.65;88.27
83894;BME280;73920;51.902;6.374;2024-01-16T08:20:12;100874.66;;;0.68;87.78
83894;BME280;73920;51.902;6.374;2024-01-16T08:22:38;100871.97;;;0.69;86.73
83894;BME280;73920;51.902;6.374;2024-01-16T08:25:05;100874.59;;;0.69;87.13
83894;BME280;73920;51.902;6.374;2024-01-16T08:27:32;100869.34;;;0.71;87.92
83894;BME280;73920;51.902;6.374;2024-01-16T08:29:58;100871.91;;;0.74;87.25
83894;BME280;73920;51.902;6.374;2024-01-16T08:32:25;100867.53;;;0.76;86.73
83894;BME280;73920;51.902;6.374;2024-01-16T08:34:51;100871.88;;;0.78;86.92
83894;BME280;73920;51.902;6.374;2024-01-16T08:37:17;100873.63;;;0.79;86.21
83894;BME280;73920;51.902;6.374;2024-01-16T08:39:43;100870.87;;;0.84;87.11
83894;BME280;73920;51.902;6.374;2024-01-16T08:42:09;100866.56;;;0.81;86.00
83894;BME280;73920;51.902;6.374;2024-01-16T08:44:38;100865.69;;;0.81;86.09
83894;BME280;73920;51.902;6.374;2024-01-16T08:47:05;100865.69;;;0.81;85.85
83894;BME280;73920;51.902;6.374;2024-01-16T08:49:31;100865.69;;;0.81;85.69
83894;BME280;73920;51.902;6.374;2024-01-16T08:51:58;100869.19;;;0.80;85.97
83894;BME280;73920;51.902;6.374;2024-01-16T08:54:24;100867.44;;;0.80;84.93
83894;BME280;73920;51.902;6.374;2024-01-16T08:56:50;100868.34;;;0.78;84.93
83894;BME280;73920;51.902;6.374;2024-01-16T08:59:16;100863.97;;;0.78;85.38
83894;BME280;73920;51.902;6.374;2024-01-16T09:01:43;100863.09;;;0.79;85.03
83894;BME280;73920;51.902;6.374;2024-01-16T09:04:09;100870.09;;;0.79;85.02
83894;BME280;73920;51.902;6.374;2024-01-16T09:06:35;100872.69;;;0.80;84.46
83894;BME280;73920;51.902;6.374;2024-01-16T09:09:02;100876.25;;;0.79;84.60
83894;BME280;73920;51.902;6.374;2024-01-16T09:11:28;100872.75;;;0.79;83.85
83894;BME280;73920;51.902;6.374;2024-01-16T09:13:54;100863.94;;;0.80;84.24
83894;BME280;73920;51.902;6.374;2024-01-16T09:16:20;100866.59;;;0.78;83.93
83894;BME280;73920;51.902;6.374;2024-01-16T09:18:46;100873.63;;;0.78;83.53
83894;BME280;73920;51.902;6.374;2024-01-16T09:21:14;100878.88;;;0.79;84.27
83894;BME280;73920;51.902;6.374;2024-01-16T09:23:40;100877.97;;;0.80;83.76
83894;BME280;73920;51.902;6.374;2024-01-16T09:26:06;100873.56;;;0.81;84.04
83894;BME280;73920;51.902;6.374;2024-01-16T09:28:33;100870.06;;;0.82;83.08
83894;BME280;73920;51.902;6.374;2024-01-16T09:30:59;100870.94;;;0.81;83.87
83894;BME280;73920;51.902;6.374;2024-01-16T09:33:25;100861.28;;;0.80;83.30
83894;BME280;73920;51.902;6.374;2024-01-16T09:35:52;100862.22;;;0.79;82.92
83894;BME280;73920;51.902;6.374;2024-01-16T09:38:18;100857.78;;;0.81;82.65
83894;BME280;73920;51.902;6.374;2024-01-16T09:40:44;100859.53;;;0.80;82.77
83894;BME280;73920;51.902;6.374;2024-01-16T09:43:11;100853.38;;;0.83;82.86
83894;BME280;73920;51.902;6.374;2024-01-16T09:45:38;100860.31;;;0.87;82.56
83894;BME280;73920;51.902;6.374;2024-01-16T09:48:05;100861.16;;;0.90;82.83
83894;BME280;73920;51.902;6.374;2024-01-16T09:50:33;100859.34;;;0.94;82.78
83894;BME280;73920;51.902;6.374;2024-01-16T09:53:00;100860.13;;;0.99;82.92
83894;BME280;73920;51.902;6.374;2024-01-16T09:55:26;100859.22;;;1.02;81.76
83894;BME280;73920;51.902;6.374;2024-01-16T09:57:53;100857.37;;;1.08;82.16
83894;BME280;73920;51.902;6.374;2024-01-16T10:00:19;100858.97;;;1.17;81.96
83894;BME280;73920;51.902;6.374;2024-01-16T10:02:47;100852.69;;;1.25;81.72
83894;BME280;73920;51.902;6.374;2024-01-16T10:05:13;100860.50;;;1.31;81.69
83894;BME280;73920;51.902;6.374;2024-01-16T10:07:41;100855.16;;;1.36;81.16
83894;BME280;73920;51.902;6.374;2024-01-16T10:10:09;100853.25;;;1.44;81.16
83894;BME280;73920;51.902;6.374;2024-01-16T10:12:35;100849.56;;;1.54;80.29
83894;BME280;73920;51.902;6.374;2024-01-16T10:15:02;100848.53;;;1.63;80.10
83894;BME280;73920;51.902;6.374;2024-01-16T10:17:35;100858.91;;;1.70;79.85
83894;BME280;73920;51.902;6.374;2024-01-16T10:20:02;100844.84;;;1.71;78.68
83894;BME280;73920;51.902;6.374;2024-01-16T10:22:29;100843.22;;;1.64;78.77
83894;BME280;73920;51.902;6.374;2024-01-16T10:25:05;100850.25;;;1.64;79.05
83894;BME280;73920;51.902;6.374;2024-01-16T10:27:33;100842.41;;;1.61;78.63
83894;BME280;73920;51.902;6.374;2024-01-16T10:29:59;100847.75;;;1.56;78.66
83894;BME280;73920;51.902;6.374;2024-01-16T10:32:32;100844.38;;;1.49;78.50
83894;BME280;73920;51.902;6.374;2024-01-16T10:35:18;100827.75;;;1.47;78.65
83894;BME280;73920;51.902;6.374;2024-01-16T10:37:49;100841.78;;;1.46;78.21
83894;BME280;73920;51.902;6.374;2024-01-16T10:40:20;100839.22;;;1.42;78.67
83894;BME280;73920;51.902;6.374;2024-01-16T10:42:56;100829.56;;;1.42;78.80
83894;BME280;73920;51.902;6.374;2024-01-16T10:45:23;100823.34;;;1.46;78.17
83894;BME280;73920;51.902;6.374;2024-01-16T10:50:21;100828.44;;;1.56;77.71
83894;BME280;73920;51.902;6.374;2024-01-16T10:52:48;100824.16;;;1.52;78.29
83894;BME280;73920;51.902;6.374;2024-01-16T10:55:21;100825.97;;;1.48;78.34
83894;BME280;73920;51.902;6.374;2024-01-16T10:57:49;100827.00;;;1.39;78.35
83894;BME280;73920;51.902;6.374;2024-01-16T11:00:21;100796.69;;;1.16;78.67
83894;BME280;73920;51.902;6.374;2024-01-16T11:05:32;100828.12;;;1.26;79.06
83894;BME280;73920;51.902;6.374;2024-01-16T11:07:59;100824.50;;;1.30;78.76
83894;BME280;73920;51.902;6.374;2024-01-16T11:10:26;100824.19;;;1.48;79.21
83894;BME280;73920;51.902;6.374;2024-01-16T11:12:55;100837.91;;;1.67;78.34
83894;BME280;73920;51.902;6.374;2024-01-16T11:15:21;100838.50;;;1.81;77.70
83894;BME280;73920;51.902;6.374;2024-01-16T11:17:49;100834.03;;;1.86;76.98
83894;BME280;73920;51.902;6.374;2024-01-16T11:20:16;100842.62;;;1.96;76.97
83894;BME280;73920;51.902;6.374;2024-01-16T11:22:44;100836.38;;;2.02;76.01
83894;BME280;73920;51.902;6.374;2024-01-16T11:25:13;100832.72;;;2.09;75.82
83894;BME280;73920;51.902;6.374;2024-01-16T11:27:39;100828.03;;;2.21;76.09
83894;BME280;73920;51.902;6.374;2024-01-16T11:30:10;100821.62;;;2.34;74.84
83894;BME280;73920;51.902;6.374;2024-01-16T11:32:38;100821.22;;;2.53;75.76
83894;BME280;73920;51.902;6.374;2024-01-16T11:35:08;100807.66;;;2.68;73.61
83894;BME280;73920;51.902;6.374;2024-01-16T11:37:40;100801.94;;;2.86;74.40
83894;BME280;73920;51.902;6.374;2024-01-16T11:42:55;100735.72;;;2.60;73.36
83894;BME280;73920;51.902;6.374;2024-01-16T11:48:16;100777.03;;;2.61;72.72
83894;BME280;73920;51.902;6.374;2024-01-16T11:50:43;100785.19;;;2.50;72.32
83894;BME280;73920;51.902;6.374;2024-01-16T11:53:10;100777.59;;;2.36;72.33
83894;BME280;73920;51.902;6.374;2024-01-16T11:55:49;100779.66;;;2.22;73.19
83894;BME280;73920;51.902;6.374;2024-01-16T12:01:01;100753.91;;;1.95;74.23
83894;BME280;73920;51.902;6.374;2024-01-16T12:03:27;100771.28;;;2.04;74.14
83894;BME280;73920;51.902;6.374;2024-01-16T12:05:57;100770.41;;;2.03;74.24
83894;BME280;73920;51.902;6.374;2024-01-16T12:08:24;100769.59;;;2.01;74.43
83894;BME280;73920;51.902;6.374;2024-01-16T12:10:51;100772.22;;;2.01;74.08
83894;BME280;73920;51.902;6.374;2024-01-16T12:13:18;100779.22;;;2.02;74.90
83894;BME280;73920;51.902;6.374;2024-01-16T12:15:44;100774.84;;;2.03;75.38
83894;BME280;73920;51.902;6.374;2024-01-16T12:18:10;100777.41;;;2.04;74.52
83894;BME280;73920;51.902;6.374;2024-01-16T12:20:43;100786.19;;;2.06;74.96
83894;BME280;73920;51.902;6.374;2024-01-16T12:23:10;100779.97;;;2.09;74.51
83894;BME280;73920;51.902;6.374;2024-01-16T12:25:39;100771.97;;;2.13;75.04
83894;BME280;73920;51.902;6.374;2024-01-16T12:28:06;100777.16;;;2.16;73.54
83894;BME280;73920;51.902;6.374;2024-01-16T12:30:34;100764.81;;;2.18;74.17
83894;BME280;73920;51.902;6.374;2024-01-16T12:33:07;100772.72;;;2.18;73.30
83894;BME280;73920;51.902;6.374;2024-01-16T12:35:39;100769.25;;;2.16;74.28
83894;BME280;73920;51.902;6.374;2024-01-16T12:38:10;100766.63;;;2.16;73.33
83894;BME280;73920;51.902;6.374;2024-01-16T12:40:39;100762.25;;;2.15;73.93
83894;BME280;73920;51.902;6.374;2024-01-16T12:43:06;100763.13;;;2.14;73.12
83894;BME280;73920;51.902;6.374;2024-01-16T12:45:33;100749.94;;;2.16;73.81
83894;BME280;73920;51.902;6.374;2024-01-16T12:48:01;100747.22;;;2.19;74.28
83894;BME280;73920;51.902;6.374;2024-01-16T12:50:28;100740.12;;;2.21;73.37
83894;BME280;73920;51.902;6.374;2024-01-16T12:53:00;100738.09;;;2.33;73.60
83894;BME280;73920;51.902;6.374;2024-01-16T12:55:27;100739.50;;;2.50;74.08
83894;BME280;73920;51.902;6.374;2024-01-16T13:00:29;100734.59;;;2.70;72.04
83894;BME280;73920;51.902;6.374;2024-01-16T13:02:55;100730.00;;;2.78;71.80
83894;BME280;73920;51.902;6.374;2024-01-16T13:05:21;100721.16;;;2.79;71.70
83894;BME280;73920;51.902;6.374;2024-01-16T13:08:00;100722.91;;;2.80;71.77
83894;BME280;73920;51.902;6.374;2024-01-16T13:10:26;100717.63;;;2.80;71.03
83894;BME280;73920;51.902;6.374;2024-01-16T13:12:59;100714.16;;;2.78;71.37